createdAt,value
2018-12-03T00:01:26.303Z,12.83
2018-12-03T00:03:58.669Z,13.10
2018-12-03T00:06:28.336Z,13.13
2018-12-03T00:08:57.891Z,12.30
2018-12-03T00:11:26.855Z,12.87
2018-12-03T00:13:56.385Z,12.23
2018-12-03T00:16:25.528Z,12.67
2018-12-03T00:18:54.546Z,12.93
2018-12-03T00:21:23.520Z,12.83
2018-12-03T00:23:52.980Z,13.78
2018-12-03T00:26:22.885Z,12.03
2018-12-03T00:28:53.103Z,12.17
2018-12-03T00:31:23.130Z,14.17
2018-12-03T00:33:52.884Z,13.07
2018-12-03T00:36:22.231Z,13.13
2018-12-03T00:38:51.303Z,12.17
2018-12-03T00:41:20.300Z,11.93
2018-12-03T00:43:49.761Z,11.67
2018-12-03T00:46:19.076Z,11.93
2018-12-03T00:48:48.294Z,11.97
2018-12-03T00:51:17.328Z,12.77
2018-12-03T00:53:47.193Z,12.97
2018-12-03T00:56:16.126Z,12.70
2018-12-03T00:58:46.406Z,13.07
2018-12-03T01:01:15.345Z,12.43
2018-12-03T01:03:44.846Z,14.10
2018-12-03T01:06:13.940Z,14.23
2018-12-03T01:08:42.971Z,14.37
2018-12-03T01:11:12.435Z,15.30
2018-12-03T01:13:41.524Z,15.30
2018-12-03T01:16:10.508Z,18.37
2018-12-03T01:18:39.529Z,17.27
2018-12-03T01:21:09.442Z,20.03
2018-12-03T01:23:38.569Z,20.20
2018-12-03T01:26:08.196Z,20.93
2018-12-03T01:28:38.172Z,21.23
2018-12-03T01:31:07.320Z,19.10
2018-12-03T01:33:36.760Z,24.10
2018-12-03T01:36:06.139Z,21.63
2018-12-03T01:38:35.355Z,20.10
2018-12-03T01:41:04.563Z,21.67
2018-12-03T01:43:33.723Z,21.03
2018-12-03T01:46:02.949Z,21.87
2018-12-03T01:48:32.033Z,22.47
2018-12-03T01:51:02.163Z,21.63
2018-12-03T01:53:31.244Z,21.10
2018-12-03T01:56:00.321Z,21.90
2018-12-03T01:58:29.231Z,19.33
2018-12-03T02:00:58.350Z,19.33
2018-12-03T02:03:27.547Z,19.77
2018-12-03T02:05:56.520Z,18.83
2018-12-03T02:08:25.515Z,17.50
2018-12-03T02:10:54.731Z,17.87
2018-12-03T02:13:23.836Z,15.10
2018-12-03T02:15:52.767Z,14.17
2018-12-03T02:18:23.104Z,13.03
2018-12-03T02:20:52.071Z,13.57
2018-12-03T02:23:21.009Z,13.67
2018-12-03T02:25:50.008Z,12.00
2018-12-03T02:28:18.975Z,10.20
2018-12-03T02:30:48.506Z,10.00
2018-12-03T02:33:17.580Z,11.10
2018-12-03T02:35:46.667Z,11.73
2018-12-03T02:38:16.335Z,10.27
2018-12-03T02:40:45.632Z,10.17
2018-12-03T02:43:15.120Z,11.03
2018-12-03T02:45:44.100Z,10.50
2018-12-03T02:48:13.280Z,9.87
2018-12-03T02:50:42.494Z,9.90
2018-12-03T02:53:11.907Z,10.27
2018-12-03T02:55:40.988Z,9.63
2018-12-03T02:58:10.196Z,9.67
2018-12-03T03:00:40.136Z,9.33
2018-12-03T03:03:09.536Z,10.00
2018-12-03T03:05:38.640Z,10.23
2018-12-03T03:08:08.730Z,9.10
2018-12-03T03:10:38.449Z,9.80
2018-12-03T03:13:07.850Z,9.53
2018-12-03T03:15:37.010Z,10.33
2018-12-03T03:18:06.420Z,9.93
2018-12-03T03:20:35.975Z,10.27
2018-12-03T03:23:06.537Z,9.30
2018-12-03T03:25:35.730Z,9.23
2018-12-03T03:28:05.281Z,9.93
2018-12-03T03:30:34.790Z,10.47
2018-12-03T03:33:03.903Z,9.90
2018-12-03T03:35:32.827Z,10.03
2018-12-03T03:38:02.991Z,10.70
2018-12-03T03:40:32.061Z,10.90
2018-12-03T03:43:01.069Z,9.97
2018-12-03T03:45:30.077Z,11.23
2018-12-03T03:47:59.580Z,10.43
2018-12-03T03:50:28.883Z,11.07
2018-12-03T03:52:58.336Z,13.10
2018-12-03T03:55:27.232Z,10.67
2018-12-03T03:57:56.233Z,11.30
2018-12-03T04:00:25.262Z,11.83
2018-12-03T04:02:54.764Z,11.80
2018-12-03T04:05:23.855Z,10.80
2018-12-03T04:07:52.877Z,11.93
2018-12-03T04:10:21.867Z,12.53
2018-12-03T04:12:51.050Z,11.80
2018-12-03T04:15:20.161Z,12.97
2018-12-03T04:17:49.424Z,13.23
2018-12-03T04:20:19.593Z,11.97
2018-12-03T04:22:51.964Z,12.87
2018-12-03T04:25:21.022Z,12.27
2018-12-03T04:27:50.098Z,13.43
2018-12-03T04:30:20.757Z,13.23
2018-12-03T04:32:50.425Z,14.27
2018-12-03T04:35:19.469Z,17.00
2018-12-03T04:37:48.827Z,17.17
2018-12-03T04:40:18.267Z,15.67
2018-12-03T04:42:47.345Z,15.57
2018-12-03T04:45:18.343Z,16.03
2018-12-03T04:47:48.866Z,16.40
2018-12-03T04:50:19.262Z,16.57
2018-12-03T04:52:48.943Z,16.70
2018-12-03T04:55:18.942Z,17.07
2018-12-03T04:57:48.076Z,17.57
2018-12-03T05:00:18.542Z,16.30
2018-12-03T05:02:48.932Z,16.93
2018-12-03T05:05:18.733Z,17.63
2018-12-03T05:07:47.712Z,21.00
2018-12-03T05:10:19.640Z,22.23
2018-12-03T05:12:49.864Z,21.50
2018-12-03T05:15:19.391Z,19.20
2018-12-03T05:17:48.390Z,19.77
2018-12-03T05:20:22.509Z,19.67
2018-12-03T05:22:51.492Z,18.60
2018-12-03T05:25:20.496Z,17.03
2018-12-03T05:27:49.508Z,16.67
2018-12-03T05:30:18.545Z,16.83
2018-12-03T05:32:47.778Z,15.60
2018-12-03T05:35:26.171Z,16.57
2018-12-03T05:37:55.839Z,16.80
2018-12-03T05:40:26.283Z,15.80
2018-12-03T05:42:55.449Z,13.97
2018-12-03T05:45:24.415Z,15.77
2018-12-03T05:47:53.640Z,13.27
2018-12-03T05:50:23.109Z,12.50
2018-12-03T05:52:52.548Z,10.80
2018-12-03T05:55:21.731Z,10.90
2018-12-03T05:57:50.691Z,11.27
2018-12-03T06:00:21.355Z,12.87
2018-12-03T06:02:51.371Z,13.03
2018-12-03T06:05:20.692Z,12.70
2018-12-03T06:07:49.744Z,12.57
2018-12-03T06:10:19.777Z,11.17
2018-12-03T06:12:49.082Z,10.37
2018-12-03T06:15:19.324Z,10.47
2018-12-03T06:17:49.308Z,8.37
2018-12-03T06:20:19.318Z,9.17
2018-12-03T06:22:48.988Z,10.93
2018-12-03T06:25:19.851Z,10.97
2018-12-03T06:27:49.004Z,13.87
2018-12-03T06:30:19.822Z,15.60
2018-12-03T06:32:49.952Z,13.27
2018-12-03T06:35:19.492Z,14.50
2018-12-03T06:37:48.852Z,15.40
2018-12-03T06:40:21.724Z,15.50
2018-12-03T06:42:51.148Z,17.23
2018-12-03T06:45:21.259Z,16.57
2018-12-03T06:48:08.288Z,15.73
2018-12-03T06:50:37.789Z,16.50
2018-12-03T06:53:06.904Z,17.87
2018-12-03T06:55:35.904Z,16.90
2018-12-03T06:58:04.985Z,17.17
2018-12-03T07:00:34.688Z,14.23
2018-12-03T07:03:03.869Z,17.60
2018-12-03T07:05:32.979Z,17.70
2018-12-03T07:08:02.539Z,19.77
2018-12-03T07:10:31.684Z,19.63
2018-12-03T07:13:02.888Z,18.60
2018-12-03T07:15:34.278Z,18.03
2018-12-03T07:18:03.644Z,18.83
2018-12-03T07:20:32.560Z,21.95
2018-12-03T07:23:02.376Z,17.57
2018-12-03T07:25:31.871Z,18.87
2018-12-03T07:28:01.090Z,19.27
2018-12-03T07:30:30.140Z,20.90
2018-12-03T07:32:59.128Z,22.40
2018-12-03T07:35:28.372Z,21.30
2018-12-03T07:37:58.023Z,22.00
2018-12-03T07:40:32.323Z,21.97
2018-12-03T07:43:01.907Z,21.90
2018-12-03T07:45:31.073Z,21.60
2018-12-03T07:48:00.080Z,21.17
2018-12-03T07:50:29.380Z,19.87
2018-12-03T07:52:58.363Z,18.73
2018-12-03T07:55:27.763Z,19.53
2018-12-03T07:57:59.897Z,19.97
2018-12-03T08:00:30.899Z,19.80
2018-12-03T08:03:00.855Z,18.60
2018-12-03T08:05:29.792Z,18.57
2018-12-03T08:07:58.795Z,18.83
2018-12-03T08:10:27.772Z,19.03
2018-12-03T08:12:56.987Z,19.33
2018-12-03T08:15:26.155Z,19.93
2018-12-03T08:17:58.664Z,22.73
2018-12-03T08:20:42.502Z,22.43
2018-12-03T08:23:16.191Z,21.17
2018-12-03T08:25:45.917Z,22.87
2018-12-03T08:28:15.825Z,21.10
2018-12-03T08:30:44.934Z,22.40
2018-12-03T08:33:14.501Z,20.33
2018-12-03T08:35:45.884Z,20.70
2018-12-03T08:38:14.972Z,21.20
2018-12-03T08:40:44.000Z,21.13
2018-12-03T08:43:13.469Z,21.80
2018-12-03T08:45:42.611Z,19.37
2018-12-03T08:50:58.165Z,19.70
2018-12-03T08:53:27.885Z,16.30
2018-12-03T08:55:57.524Z,18.73
2018-12-03T08:58:26.820Z,18.00
2018-12-03T09:00:55.867Z,18.13
2018-12-03T09:03:27.240Z,18.77
2018-12-03T09:05:57.203Z,18.83
2018-12-03T09:08:26.223Z,19.63
2018-12-03T09:10:56.972Z,18.77
2018-12-03T09:13:26.264Z,18.33
2018-12-03T09:16:03.864Z,16.93
2018-12-03T09:18:40.932Z,19.87
2018-12-03T09:21:19.294Z,21.60
2018-12-03T09:23:49.995Z,20.53
2018-12-03T09:26:18.989Z,22.47
2018-12-03T09:28:48.485Z,25.50
2018-12-03T09:31:20.443Z,26.23
2018-12-03T09:33:53.692Z,27.33
2018-12-03T09:36:24.427Z,25.60
2018-12-03T09:38:58.943Z,30.83
2018-12-03T09:41:27.983Z,32.70
2018-12-03T09:43:56.982Z,29.40
2018-12-03T09:46:25.982Z,30.87
2018-12-03T09:48:58.268Z,28.83
2018-12-03T09:51:35.167Z,29.43
2018-12-03T09:54:07.497Z,30.10
2018-12-03T09:56:46.925Z,28.13
2018-12-03T09:59:18.035Z,28.77
2018-12-03T10:01:48.472Z,30.63
2018-12-03T10:04:27.113Z,29.27
2018-12-03T10:06:56.404Z,26.67
2018-12-03T10:09:25.304Z,25.00
2018-12-03T10:11:59.084Z,29.47
2018-12-03T10:14:28.586Z,27.80
2018-12-03T10:16:58.757Z,24.33
2018-12-03T10:19:27.915Z,18.00
2018-12-03T10:21:57.147Z,17.83
2018-12-03T10:24:26.730Z,13.30
2018-12-03T10:26:55.943Z,12.63
2018-12-03T10:29:25.815Z,13.53
2018-12-03T10:31:55.786Z,13.53
2018-12-03T10:34:25.152Z,12.33
2018-12-03T10:36:56.859Z,13.67
2018-12-03T10:39:28.407Z,13.40
2018-12-03T10:42:05.165Z,12.27
2018-12-03T10:44:34.572Z,12.53
2018-12-03T10:47:04.487Z,12.17
2018-12-03T10:49:34.605Z,13.70
2018-12-03T10:52:04.044Z,13.17
2018-12-03T10:54:37.732Z,11.40
2018-12-03T10:57:08.134Z,13.23
2018-12-03T10:59:38.260Z,14.13
2018-12-03T11:02:13.106Z,10.30
2018-12-03T11:04:43.304Z,11.43
2018-12-03T11:07:15.412Z,10.00
2018-12-03T11:09:45.085Z,7.47
2018-12-03T11:12:14.707Z,9.00
2018-12-03T11:14:44.609Z,9.03
2018-12-03T11:17:15.028Z,11.23
2018-12-03T11:19:47.408Z,10.03
2018-12-03T11:22:21.913Z,8.53
2018-12-03T11:24:51.012Z,9.93
2018-12-03T11:27:20.946Z,10.33
2018-12-03T11:29:53.669Z,11.13
2018-12-03T11:32:22.919Z,10.07
2018-12-03T11:34:51.956Z,11.70
2018-12-03T11:37:21.826Z,9.83
2018-12-03T11:39:55.898Z,8.70
2018-12-03T11:42:27.216Z,9.07
2018-12-03T11:44:57.303Z,9.67
2018-12-03T11:47:26.833Z,9.60
2018-12-03T11:49:56.020Z,9.27
2018-12-03T11:52:26.540Z,8.87
2018-12-03T11:54:55.659Z,9.70
2018-12-03T11:57:24.849Z,10.90
2018-12-03T11:59:54.736Z,13.03
2018-12-03T12:02:24.019Z,15.13
2018-12-03T12:04:53.368Z,12.10
2018-12-03T12:07:22.541Z,11.43
2018-12-03T12:09:51.845Z,12.03
2018-12-03T12:12:21.145Z,14.80
2018-12-03T12:14:50.306Z,16.03
2018-12-03T12:17:19.725Z,17.27
2018-12-03T12:19:48.816Z,13.43
2018-12-03T12:22:17.892Z,11.57
2018-12-03T12:24:47.244Z,11.17
2018-12-03T12:27:16.941Z,12.23
2018-12-03T12:29:46.341Z,12.67
2018-12-03T12:32:15.331Z,13.10
2018-12-03T12:34:44.841Z,12.63
2018-12-03T12:37:14.447Z,13.10
2018-12-03T12:39:43.611Z,12.70
2018-12-03T12:42:13.256Z,13.30
2018-12-03T12:44:42.677Z,14.00
2018-12-03T12:47:11.749Z,15.80
2018-12-03T12:49:41.261Z,16.80
2018-12-03T12:52:10.875Z,17.03
2018-12-03T12:54:40.259Z,19.33
2018-12-03T12:57:09.747Z,19.07
2018-12-03T12:59:39.483Z,21.43
2018-12-03T13:02:09.984Z,19.93
2018-12-03T13:04:41.199Z,18.23
2018-12-03T13:07:14.634Z,15.50
2018-12-03T13:09:46.187Z,23.20
2018-12-03T13:12:16.107Z,19.03
2018-12-03T13:14:46.155Z,18.80
2018-12-03T13:17:15.921Z,17.23
2018-12-03T13:19:46.028Z,17.60
2018-12-03T13:22:16.095Z,16.03
2018-12-03T13:24:46.011Z,14.70
2018-12-03T13:27:16.416Z,17.92
2018-12-03T13:29:45.495Z,18.53
2018-12-03T13:32:15.456Z,17.70
2018-12-03T13:34:44.728Z,14.97
2018-12-03T13:37:14.294Z,16.60
2018-12-03T13:39:44.269Z,18.43
2018-12-03T13:42:13.986Z,16.80
2018-12-03T13:44:44.247Z,17.27
2018-12-03T13:47:14.317Z,16.23
2018-12-03T13:49:43.300Z,18.37
2018-12-03T13:52:12.813Z,18.77
2018-12-03T13:54:42.232Z,21.07
2018-12-03T13:57:12.337Z,19.73
2018-12-03T13:59:42.049Z,18.10
2018-12-03T14:02:11.371Z,16.93
2018-12-03T14:04:41.316Z,20.23
2018-12-03T14:07:22.993Z,21.33
2018-12-03T14:10:35.094Z,17.13
2018-12-03T14:13:14.655Z,18.20
2018-12-03T14:15:54.804Z,14.00
2018-12-03T14:18:26.865Z,13.80
2018-12-03T14:21:00.096Z,13.60
2018-12-03T14:23:33.079Z,12.17
2018-12-03T14:26:03.413Z,11.50
2018-12-03T14:28:32.884Z,9.47
2018-12-03T14:31:02.558Z,9.63
2018-12-03T14:33:31.699Z,9.87
2018-12-03T14:36:01.347Z,8.83
2018-12-03T14:38:30.634Z,10.00
2018-12-03T14:40:59.608Z,9.20
2018-12-03T14:43:29.543Z,8.70
2018-12-03T14:45:59.704Z,10.97
2018-12-03T14:48:28.979Z,12.17
2018-12-03T14:50:58.737Z,10.83
2018-12-03T14:53:28.281Z,12.50
2018-12-03T14:55:57.947Z,12.30
2018-12-03T14:58:27.560Z,10.90
2018-12-03T15:00:57.299Z,13.23
2018-12-03T15:03:26.770Z,12.73
2018-12-03T15:05:56.825Z,12.77
2018-12-03T15:08:26.780Z,13.93
2018-12-03T15:10:57.312Z,17.90
2018-12-03T15:13:27.152Z,11.47
2018-12-03T15:16:00.814Z,11.60
2018-12-03T15:18:41.560Z,11.40
2018-12-03T15:21:16.292Z,12.00
2018-12-03T15:24:02.352Z,13.38
2018-12-03T15:26:32.533Z,11.33
2018-12-03T15:29:04.007Z,13.57
2018-12-03T15:31:34.411Z,13.53
2018-12-03T15:34:03.631Z,12.27
2018-12-03T15:36:33.282Z,12.37
2018-12-03T15:39:02.579Z,12.90
2018-12-03T15:41:31.897Z,14.13
2018-12-03T15:44:01.661Z,13.93
2018-12-03T15:46:32.068Z,14.80
2018-12-03T15:49:01.829Z,14.87
2018-12-03T15:51:31.104Z,14.87
2018-12-03T15:54:05.357Z,13.67
2018-12-03T15:56:41.428Z,14.10
2018-12-03T15:59:26.284Z,15.10
2018-12-03T16:02:12.340Z,15.40
2018-12-03T16:08:31.252Z,28.83
2018-12-03T16:11:00.199Z,27.00
2018-12-03T16:13:29.281Z,23.03
2018-12-03T16:16:14.393Z,21.67
2018-12-03T16:18:56.660Z,20.70
2018-12-03T16:21:26.076Z,19.43
2018-12-03T16:23:56.380Z,21.63
2018-12-03T16:26:25.822Z,22.67
2018-12-03T16:28:55.016Z,24.40
2018-12-03T16:31:24.644Z,22.73
2018-12-03T16:33:53.737Z,23.20
2018-12-03T16:36:23.010Z,22.00
2018-12-03T16:38:53.376Z,26.52
2018-12-03T16:41:24.039Z,24.57
2018-12-03T16:43:53.660Z,26.00
2018-12-03T16:46:23.216Z,26.07
2018-12-03T16:48:52.376Z,25.57
2018-12-03T16:51:21.566Z,25.63
2018-12-03T16:53:50.805Z,26.67
2018-12-03T16:56:19.876Z,25.27
2018-12-03T16:58:49.024Z,26.27
2018-12-03T17:01:18.395Z,27.30
2018-12-03T17:03:47.828Z,27.20
2018-12-03T17:06:17.418Z,26.20
2018-12-03T17:08:47.164Z,25.20
2018-12-03T17:11:17.517Z,26.67
2018-12-03T17:13:49.387Z,27.77
2018-12-03T17:16:19.022Z,28.83
2018-12-03T17:18:51.105Z,31.63
2018-12-03T17:21:55.996Z,30.73
2018-12-03T17:24:30.684Z,28.97
2018-12-03T17:27:01.018Z,28.90
2018-12-03T17:29:31.632Z,28.93
2018-12-03T17:32:01.244Z,30.43
2018-12-03T17:34:32.036Z,30.50
2018-12-03T17:37:03.059Z,28.10
2018-12-03T17:39:33.903Z,25.97
2018-12-03T17:42:07.436Z,24.63
2018-12-03T17:44:38.579Z,25.50
2018-12-03T17:47:08.632Z,26.83
2018-12-03T17:49:39.976Z,26.87
2018-12-03T17:52:10.281Z,24.13
2018-12-03T17:54:41.032Z,23.43
2018-12-03T17:57:10.881Z,23.90
2018-12-03T17:59:40.509Z,19.77
2018-12-03T18:02:11.014Z,24.40
2018-12-03T18:04:41.247Z,21.93
2018-12-03T18:07:10.332Z,20.73
2018-12-03T18:09:39.554Z,22.23
2018-12-03T18:12:10.014Z,23.63
2018-12-03T18:14:42.818Z,23.57
2018-12-03T18:17:14.816Z,22.83
2018-12-03T18:19:48.915Z,27.63
2018-12-03T18:22:21.386Z,32.60
2018-12-03T18:24:52.212Z,25.87
2018-12-03T18:27:24.705Z,24.50
2018-12-03T18:29:54.004Z,19.27
2018-12-03T18:32:24.276Z,21.97
2018-12-03T18:34:55.959Z,22.67
2018-12-03T18:37:25.355Z,25.37
2018-12-03T18:39:55.318Z,23.53
2018-12-03T18:42:24.541Z,22.53
2018-12-03T18:44:54.476Z,24.23
2018-12-03T18:47:24.596Z,23.57
2018-12-03T18:49:56.808Z,22.80
2018-12-03T18:52:25.836Z,22.17
2018-12-03T18:54:55.072Z,23.73
2018-12-03T18:57:23.906Z,27.87
2018-12-03T18:59:52.942Z,28.30
2018-12-03T19:02:21.953Z,29.90
2018-12-03T19:04:51.112Z,24.77
2018-12-03T19:07:20.013Z,25.73
2018-12-03T19:09:48.974Z,27.93
2018-12-03T19:12:18.891Z,27.70
2018-12-03T19:14:48.144Z,26.30
2018-12-03T19:17:17.995Z,25.57
2018-12-03T19:19:47.193Z,27.70
2018-12-03T19:22:16.524Z,26.60
2018-12-03T19:24:46.512Z,25.93
2018-12-03T19:27:15.611Z,27.17
2018-12-03T19:29:45.135Z,23.80
2018-12-03T19:32:17.064Z,23.87
2018-12-03T19:34:48.104Z,26.55
2018-12-03T19:37:19.148Z,23.87
2018-12-03T19:39:48.600Z,25.13
2018-12-03T19:42:17.598Z,26.03
2018-12-03T19:44:46.859Z,22.93
2018-12-03T19:47:18.973Z,24.37
2018-12-03T19:49:49.569Z,31.93
2018-12-03T19:52:19.634Z,25.33
2018-12-03T19:54:49.840Z,23.43
2018-12-03T19:57:24.763Z,36.00
2018-12-03T20:00:00.706Z,41.57
2018-12-03T20:02:27.917Z,32.37
2018-12-03T20:05:03.689Z,29.30
2018-12-03T20:07:33.597Z,34.95
2018-12-03T20:10:03.256Z,24.73
2018-12-03T20:12:32.857Z,25.77
2018-12-03T20:15:03.680Z,23.43
2018-12-03T20:17:37.970Z,22.97
2018-12-03T20:20:13.517Z,22.90
2018-12-03T20:22:53.796Z,23.00
2018-12-03T20:25:27.904Z,22.77
2018-12-03T20:28:07.271Z,26.23
2018-12-03T20:32:48.754Z,26.03
2018-12-03T20:35:25.733Z,27.83
2018-12-03T20:38:05.140Z,31.03
2018-12-03T20:40:41.798Z,31.17
2018-12-03T20:43:16.560Z,29.00
2018-12-03T20:46:08.423Z,27.77
2018-12-03T20:48:50.715Z,26.87
2018-12-03T20:51:38.740Z,24.67
2018-12-03T20:54:09.143Z,24.00
2018-12-03T20:56:38.166Z,23.00
2018-12-03T20:59:08.116Z,22.07
2018-12-03T21:01:41.067Z,21.77
2018-12-03T21:04:11.425Z,22.10
2018-12-03T21:06:41.225Z,22.87
2018-12-03T21:09:10.753Z,23.30
2018-12-03T21:11:41.129Z,33.17
2018-12-03T21:14:09.985Z,31.70
2018-12-03T21:16:39.344Z,37.50
2018-12-03T21:19:09.105Z,32.43
2018-12-03T21:21:38.327Z,32.53
2018-12-03T21:24:07.621Z,33.10
2018-12-03T21:26:36.931Z,31.87
2018-12-03T21:29:06.064Z,33.70
2018-12-03T21:31:36.674Z,34.17
2018-12-03T21:34:06.444Z,38.03
2018-12-03T21:36:35.608Z,39.27
2018-12-03T21:39:07.914Z,37.03
2018-12-03T21:41:39.288Z,36.67
2018-12-03T21:44:08.557Z,39.63
2018-12-03T21:46:37.735Z,25.37
2018-12-03T21:49:07.052Z,24.60
2018-12-03T21:51:36.282Z,21.00
2018-12-03T21:54:05.315Z,20.30
2018-12-03T21:56:34.372Z,20.73
2018-12-03T21:59:04.544Z,20.33
2018-12-03T22:01:34.279Z,18.73
2018-12-03T22:04:04.296Z,16.07
2018-12-03T22:06:33.488Z,14.07
2018-12-03T22:09:03.023Z,12.83
2018-12-03T22:11:34.132Z,12.63
2018-12-03T22:14:03.541Z,14.83
2018-12-03T22:16:32.622Z,14.53
2018-12-03T22:19:01.609Z,12.93
2018-12-03T22:21:30.575Z,13.17
2018-12-03T22:23:59.636Z,12.30
2018-12-03T22:26:28.644Z,11.03
2018-12-03T22:28:57.804Z,7.83
2018-12-03T22:31:26.884Z,8.50
2018-12-03T22:33:55.866Z,7.13
2018-12-03T22:36:25.025Z,6.80
2018-12-03T22:38:54.700Z,8.10
2018-12-03T22:41:24.200Z,9.10
2018-12-03T22:43:53.408Z,10.97
2018-12-03T22:46:22.359Z,10.60
2018-12-03T22:48:51.592Z,12.20
2018-12-03T22:51:21.040Z,12.97
2018-12-03T22:53:50.644Z,13.47
2018-12-03T22:56:19.655Z,14.20
2018-12-03T22:58:48.591Z,13.93
2018-12-03T23:01:24.349Z,15.07
2018-12-03T23:03:53.345Z,12.98
2018-12-03T23:06:22.272Z,13.23
2018-12-03T23:08:51.316Z,12.87
2018-12-03T23:11:21.060Z,13.40
2018-12-03T23:13:51.045Z,13.77
2018-12-03T23:16:20.655Z,10.07
2018-12-03T23:18:49.736Z,10.20
2018-12-03T23:21:18.696Z,10.17
2018-12-03T23:23:47.825Z,8.73
2018-12-03T23:26:17.242Z,7.80
2018-12-03T23:28:46.276Z,8.60
2018-12-03T23:31:15.328Z,8.87
2018-12-03T23:33:44.265Z,7.87
2018-12-03T23:36:13.283Z,9.10
2018-12-03T23:38:42.272Z,8.53
2018-12-03T23:41:13.096Z,8.93
2018-12-03T23:43:42.199Z,8.40
2018-12-03T23:46:11.104Z,9.33
2018-12-03T23:48:40.124Z,9.47
2018-12-03T23:51:09.172Z,8.73
2018-12-03T23:53:39.350Z,9.77
